sensor_id;sensor_type;location;lat;lon;timestamp;temperature;humidity
14101;DHT22;7127;49.372;8.166;2022-11-03T00:00:35;12.50;55.40
14101;DHT22;7127;49.372;8.166;2022-11-03T00:03:02;12.50;55.40
14101;DHT22;7127;49.372;8.166;2022-11-03T00:05:29;12.40;55.20
14101;DHT22;7127;49.372;8.166;2022-11-03T00:08:13;12.40;55.30
14101;DHT22;7127;49.372;8.166;2022-11-03T00:10:40;12.40;55.40
14101;DHT22;7127;49.372;8.166;2022-11-03T00:13:09;12.40;55.50
14101;DHT22;7127;49.372;8.166;2022-11-03T00:15:36;12.30;55.50
14101;DHT22;7127;49.372;8.166;2022-11-03T00:18:03;12.30;55.50
14101;DHT22;7127;49.372;8.166;2022-11-03T00:20:30;12.30;55.40
14101;DHT22;7127;49.372;8.166;2022-11-03T00:22:57;12.20;55.70
14101;DHT22;7127;49.372;8.166;2022-11-03T00:25:24;12.20;55.60
14101;DHT22;7127;49.372;8.166;2022-11-03T00:27:54;12.20;55.50
14101;DHT22;7127;49.372;8.166;2022-11-03T00:30:23;12.20;55.70
14101;DHT22;7127;49.372;8.166;2022-11-03T00:32:50;12.20;55.90
14101;DHT22;7127;49.372;8.166;2022-11-03T00:35:17;12.10;55.90
14101;DHT22;7127;49.372;8.166;2022-11-03T00:37:44;12.10;56.00
14101;DHT22;7127;49.372;8.166;2022-11-03T00:40:11;12.10;56.20
14101;DHT22;7127;49.372;8.166;2022-11-03T00:42:38;12.20;56.30
14101;DHT22;7127;49.372;8.166;2022-11-03T00:45:06;12.10;56.30
14101;DHT22;7127;49.372;8.166;2022-11-03T00:47:35;12.10;56.30
14101;DHT22;7127;49.372;8.166;2022-11-03T00:50:22;12.20;56.40
14101;DHT22;7127;49.372;8.166;2022-11-03T00:52:49;12.20;56.40
14101;DHT22;7127;49.372;8.166;2022-11-03T00:55:16;12.20;56.40
14101;DHT22;7127;49.372;8.166;2022-11-03T00:57:43;12.20;56.40
14101;DHT22;7127;49.372;8.166;2022-11-03T01:00:11;12.20;56.40
14101;DHT22;7127;49.372;8.166;2022-11-03T01:02:40;12.20;56.30
14101;DHT22;7127;49.372;8.166;2022-11-03T01:05:07;12.20;56.20
14101;DHT22;7127;49.372;8.166;2022-11-03T01:07:52;12.20;56.20
14101;DHT22;7127;49.372;8.166;2022-11-03T01:10:19;12.20;56.10
14101;DHT22;7127;49.372;8.166;2022-11-03T01:12:46;12.20;56.10
14101;DHT22;7127;49.372;8.166;2022-11-03T01:15:13;12.20;56.00
14101;DHT22;7127;49.372;8.166;2022-11-03T01:17:42;12.10;56.10
14101;DHT22;7127;49.372;8.166;2022-11-03T01:20:09;12.10;56.10
14101;DHT22;7127;49.372;8.166;2022-11-03T01:22:36;12.10;56.10
14101;DHT22;7127;49.372;8.166;2022-11-03T01:25:04;12.10;56.00
14101;DHT22;7127;49.372;8.166;2022-11-03T01:27:33;12.10;55.90
14101;DHT22;7127;49.372;8.166;2022-11-03T01:30:00;12.00;55.80
14101;DHT22;7127;49.372;8.166;2022-11-03T01:32:27;12.00;55.80
14101;DHT22;7127;49.372;8.166;2022-11-03T01:34:56;12.00;55.90
14101;DHT22;7127;49.372;8.166;2022-11-03T01:37:23;11.90;55.90
14101;DHT22;7127;49.372;8.166;2022-11-03T01:39:50;11.90;55.90
14101;DHT22;7127;49.372;8.166;2022-11-03T01:42:17;11.90;55.90
14101;DHT22;7127;49.372;8.166;2022-11-03T01:44:46;11.80;55.80
14101;DHT22;7127;49.372;8.166;2022-11-03T01:47:31;11.80;55.80
14101;DHT22;7127;49.372;8.166;2022-11-03T01:50:04;11.70;56.10
14101;DHT22;7127;49.372;8.166;2022-11-03T01:52:35;11.70;55.90
14101;DHT22;7127;49.372;8.166;2022-11-03T01:55:08;11.70;56.60
14101;DHT22;7127;49.372;8.166;2022-11-03T01:57:38;11.70;56.20
14101;DHT22;7127;49.372;8.166;2022-11-03T02:00:08;11.70;56.40
14101;DHT22;7127;49.372;8.166;2022-11-03T02:02:35;11.70;56.50
14101;DHT22;7127;49.372;8.166;2022-11-03T02:05:04;11.70;56.60
14101;DHT22;7127;49.372;8.166;2022-11-03T02:07:35;11.70;56.70
14101;DHT22;7127;49.372;8.166;2022-11-03T02:10:05;11.70;56.80
14101;DHT22;7127;49.372;8.166;2022-11-03T02:12:33;11.70;56.70
14101;DHT22;7127;49.372;8.166;2022-11-03T02:15:04;11.70;56.70
14101;DHT22;7127;49.372;8.166;2022-11-03T02:17:32;11.70;56.70
14101;DHT22;7127;49.372;8.166;2022-11-03T02:20:04;11.70;56.70
14101;DHT22;7127;49.372;8.166;2022-11-03T02:23:07;11.70;56.50
14101;DHT22;7127;49.372;8.166;2022-11-03T02:25:41;11.70;56.70
14101;DHT22;7127;49.372;8.166;2022-11-03T02:28:10;11.70;57.10
14101;DHT22;7127;49.372;8.166;2022-11-03T02:30:42;11.70;56.30
14101;DHT22;7127;49.372;8.166;2022-11-03T02:33:19;11.70;56.30
14101;DHT22;7127;49.372;8.166;2022-11-03T02:35:52;11.70;56.40
14101;DHT22;7127;49.372;8.166;2022-11-03T02:38:24;11.70;56.30
14101;DHT22;7127;49.372;8.166;2022-11-03T02:40:57;11.60;56.40
14101;DHT22;7127;49.372;8.166;2022-11-03T02:43:25;11.60;56.50
14101;DHT22;7127;49.372;8.166;2022-11-03T02:45:54;11.60;57.20
14101;DHT22;7127;49.372;8.166;2022-11-03T02:48:21;11.60;56.50
14101;DHT22;7127;49.372;8.166;2022-11-03T02:50:48;11.60;56.50
14101;DHT22;7127;49.372;8.166;2022-11-03T02:53:15;11.60;56.60
14101;DHT22;7127;49.372;8.166;2022-11-03T02:55:50;11.50;56.40
14101;DHT22;7127;49.372;8.166;2022-11-03T02:58:25;11.50;56.60
14101;DHT22;7127;49.372;8.166;2022-11-03T03:00:54;11.50;56.60
14101;DHT22;7127;49.372;8.166;2022-11-03T03:03:27;11.50;56.80
14101;DHT22;7127;49.372;8.166;2022-11-03T03:05:58;11.50;56.80
14101;DHT22;7127;49.372;8.166;2022-11-03T03:08:28;11.50;56.90
14101;DHT22;7127;49.372;8.166;2022-11-03T03:10:57;11.40;56.80
14101;DHT22;7127;49.372;8.166;2022-11-03T03:13:27;11.40;56.80
14101;DHT22;7127;49.372;8.166;2022-11-03T03:16:04;11.50;56.90
14101;DHT22;7127;49.372;8.166;2022-11-03T03:18:40;11.40;56.90
14101;DHT22;7127;49.372;8.166;2022-11-03T03:21:11;11.40;57.00
14101;DHT22;7127;49.372;8.166;2022-11-03T03:23:45;11.50;57.10
14101;DHT22;7127;49.372;8.166;2022-11-03T03:26:19;11.50;57.20
14101;DHT22;7127;49.372;8.166;2022-11-03T03:28:52;11.50;57.20
14101;DHT22;7127;49.372;8.166;2022-11-03T03:31:22;11.50;57.20
14101;DHT22;7127;49.372;8.166;2022-11-03T03:33:52;11.50;57.20
14101;DHT22;7127;49.372;8.166;2022-11-03T03:36:21;11.50;57.20
14101;DHT22;7127;49.372;8.166;2022-11-03T03:38:53;11.50;57.20
14101;DHT22;7127;49.372;8.166;2022-11-03T03:41:21;11.50;57.40
14101;DHT22;7127;49.372;8.166;2022-11-03T03:43:53;11.50;57.40
14101;DHT22;7127;49.372;8.166;2022-11-03T03:46:22;11.50;57.10
14101;DHT22;7127;49.372;8.166;2022-11-03T03:48:50;11.50;57.10
14101;DHT22;7127;49.372;8.166;2022-11-03T03:51:21;11.50;57.20
14101;DHT22;7127;49.372;8.166;2022-11-03T03:53:49;11.50;57.10
14101;DHT22;7127;49.372;8.166;2022-11-03T03:56:22;11.60;57.20
14101;DHT22;7127;49.372;8.166;2022-11-03T03:58:52;11.50;56.90
14101;DHT22;7127;49.372;8.166;2022-11-03T04:01:19;11.50;56.90
14101;DHT22;7127;49.372;8.166;2022-11-03T04:03:46;11.50;56.90
14101;DHT22;7127;49.372;8.166;2022-11-03T04:06:13;11.50;56.90
14101;DHT22;7127;49.372;8.166;2022-11-03T04:08:40;11.40;56.80
14101;DHT22;7127;49.372;8.166;2022-11-03T04:11:07;11.40;56.90
14101;DHT22;7127;49.372;8.166;2022-11-03T04:13:53;11.40;57.50
14101;DHT22;7127;49.372;8.166;2022-11-03T04:16:37;11.40;57.10
14101;DHT22;7127;49.372;8.166;2022-11-03T04:19:21;11.40;57.20
14101;DHT22;7127;49.372;8.166;2022-11-03T04:22:06;11.30;57.00
14101;DHT22;7127;49.372;8.166;2022-11-03T04:24:43;11.30;56.90
14101;DHT22;7127;49.372;8.166;2022-11-03T04:27:29;11.40;56.80
14101;DHT22;7127;49.372;8.166;2022-11-03T04:30:01;11.30;56.80
14101;DHT22;7127;49.372;8.166;2022-11-03T04:32:29;11.30;56.80
14101;DHT22;7127;49.372;8.166;2022-11-03T04:34:57;11.30;56.80
14101;DHT22;7127;49.372;8.166;2022-11-03T04:37:26;11.30;56.70
14101;DHT22;7127;49.372;8.166;2022-11-03T04:39:56;11.20;57.00
14101;DHT22;7127;49.372;8.166;2022-11-03T04:42:24;11.20;56.90
14101;DHT22;7127;49.372;8.166;2022-11-03T04:44:52;11.20;56.90
14101;DHT22;7127;49.372;8.166;2022-11-03T04:47:20;11.10;57.00
14101;DHT22;7127;49.372;8.166;2022-11-03T04:49:47;11.10;57.00
14101;DHT22;7127;49.372;8.166;2022-11-03T04:52:16;11.10;57.20
14101;DHT22;7127;49.372;8.166;2022-11-03T04:54:44;11.10;57.30
14101;DHT22;7127;49.372;8.166;2022-11-03T04:57:13;11.10;57.40
14101;DHT22;7127;49.372;8.166;2022-11-03T04:59:40;11.10;57.40
14101;DHT22;7127;49.372;8.166;2022-11-03T05:02:11;11.20;57.50
14101;DHT22;7127;49.372;8.166;2022-11-03T05:04:41;11.20;57.60
14101;DHT22;7127;49.372;8.166;2022-11-03T05:07:21;11.20;57.60
14101;DHT22;7127;49.372;8.166;2022-11-03T05:09:49;11.20;57.70
14101;DHT22;7127;49.372;8.166;2022-11-03T05:12:18;11.20;57.60
14101;DHT22;7127;49.372;8.166;2022-11-03T05:14:45;11.20;57.70
14101;DHT22;7127;49.372;8.166;2022-11-03T05:17:21;11.20;57.80
14101;DHT22;7127;49.372;8.166;2022-11-03T05:19:54;11.20;57.80
14101;DHT22;7127;49.372;8.166;2022-11-03T05:22:24;11.20;57.60
14101;DHT22;7127;49.372;8.166;2022-11-03T05:24:55;11.20;57.60
14101;DHT22;7127;49.372;8.166;2022-11-03T05:27:23;11.20;57.40
14101;DHT22;7127;49.372;8.166;2022-11-03T05:29:52;11.20;57.40
14101;DHT22;7127;49.372;8.166;2022-11-03T05:32:22;11.20;57.50
14101;DHT22;7127;49.372;8.166;2022-11-03T05:34:52;11.20;57.20
14101;DHT22;7127;49.372;8.166;2022-11-03T05:37:27;11.20;57.30
14101;DHT22;7127;49.372;8.166;2022-11-03T05:39:56;11.20;57.20
14101;DHT22;7127;49.372;8.166;2022-11-03T05:42:31;11.10;57.20
14101;DHT22;7127;49.372;8.166;2022-11-03T05:45:00;11.10;57.30
14101;DHT22;7127;49.372;8.166;2022-11-03T05:47:31;11.10;57.30
14101;DHT22;7127;49.372;8.166;2022-11-03T05:50:10;11.10;57.50
14101;DHT22;7127;49.372;8.166;2022-11-03T05:52:39;11.10;57.60
14101;DHT22;7127;49.372;8.166;2022-11-03T05:55:26;11.10;57.70
14101;DHT22;7127;49.372;8.166;2022-11-03T05:57:54;11.10;57.90
14101;DHT22;7127;49.372;8.166;2022-11-03T06:00:27;11.10;57.80
14101;DHT22;7127;49.372;8.166;2022-11-03T06:02:55;11.10;57.90
14101;DHT22;7127;49.372;8.166;2022-11-03T06:05:25;11.10;58.00
14101;DHT22;7127;49.372;8.166;2022-11-03T06:07:53;11.10;58.00
14101;DHT22;7127;49.372;8.166;2022-11-03T06:10:26;11.20;58.10
14101;DHT22;7127;49.372;8.166;2022-11-03T06:12:56;11.20;58.10
14101;DHT22;7127;49.372;8.166;2022-11-03T06:15:28;11.20;58.10
14101;DHT22;7127;49.372;8.166;2022-11-03T06:17:57;11.20;57.90
14101;DHT22;7127;49.372;8.166;2022-11-03T06:20:27;11.20;57.90
14101;DHT22;7127;49.372;8.166;2022-11-03T06:22:55;11.30;57.70
14101;DHT22;7127;49.372;8.166;2022-11-03T06:25:26;11.20;57.50
14101;DHT22;7127;49.372;8.166;2022-11-03T06:27:54;11.30;57.60
14101;DHT22;7127;49.372;8.166;2022-11-03T06:30:25;11.20;57.60
14101;DHT22;7127;49.372;8.166;2022-11-03T06:32:54;11.20;57.60
14101;DHT22;7127;49.372;8.166;2022-11-03T06:35:23;11.20;57.60
14101;DHT22;7127;49.372;8.166;2022-11-03T06:37:53;11.10;57.60
14101;DHT22;7127;49.372;8.166;2022-11-03T06:40:35;11.20;57.80
14101;DHT22;7127;49.372;8.166;2022-11-03T06:43:13;11.20;58.10
14101;DHT22;7127;49.372;8.166;2022-11-03T06:45:47;11.20;58.10
14101;DHT22;7127;49.372;8.166;2022-11-03T06:48:21;11.20;58.10
14101;DHT22;7127;49.372;8.166;2022-11-03T06:50:49;11.20;58.20
14101;DHT22;7127;49.372;8.166;2022-11-03T06:53:22;11.20;58.10
14101;DHT22;7127;49.372;8.166;2022-11-03T06:55:51;11.30;58.30
14101;DHT22;7127;49.372;8.166;2022-11-03T06:58:23;11.30;58.20
14101;DHT22;7127;49.372;8.166;2022-11-03T07:00:53;11.30;58.20
14101;DHT22;7127;49.372;8.166;2022-11-03T07:03:23;11.30;58.20
14101;DHT22;7127;49.372;8.166;2022-11-03T07:05:55;11.40;58.20
14101;DHT22;7127;49.372;8.166;2022-11-03T07:08:27;11.40;58.20
14101;DHT22;7127;49.372;8.166;2022-11-03T07:11:00;11.40;58.20
14101;DHT22;7127;49.372;8.166;2022-11-03T07:13:28;11.40;58.20
14101;DHT22;7127;49.372;8.166;2022-11-03T07:15:57;11.40;58.20
14101;DHT22;7127;49.372;8.166;2022-11-03T07:18:26;11.50;58.30
14101;DHT22;7127;49.372;8.166;2022-11-03T07:20:55;11.50;58.30
14101;DHT22;7127;49.372;8.166;2022-11-03T07:23:27;11.50;58.90
14101;DHT22;7127;49.372;8.166;2022-11-03T07:25:57;11.50;58.30
14101;DHT22;7127;49.372;8.166;2022-11-03T07:28:28;11.50;58.20
14101;DHT22;7127;49.372;8.166;2022-11-03T07:30:59;11.60;58.30
14101;DHT22;7127;49.372;8.166;2022-11-03T07:33:29;11.60;58.30
14101;DHT22;7127;49.372;8.166;2022-11-03T07:35:57;11.60;58.40
14101;DHT22;7127;49.372;8.166;2022-11-03T07:38:27;11.70;58.60
14101;DHT22;7127;49.372;8.166;2022-11-03T07:40:56;11.70;58.60
14101;DHT22;7127;49.372;8.166;2022-11-03T07:43:27;11.70;58.60
14101;DHT22;7127;49.372;8.166;2022-11-03T07:45:56;11.80;58.70
14101;DHT22;7127;49.372;8.166;2022-11-03T07:48:25;11.80;58.70
14101;DHT22;7127;49.372;8.166;2022-11-03T07:50:54;11.90;58.90
14101;DHT22;7127;49.372;8.166;2022-11-03T07:53:29;11.90;59.00
14101;DHT22;7127;49.372;8.166;2022-11-03T07:55:59;11.90;59.00
14101;DHT22;7127;49.372;8.166;2022-11-03T07:58:33;12.00;59.80
14101;DHT22;7127;49.372;8.166;2022-11-03T08:01:01;12.10;59.30
14101;DHT22;7127;49.372;8.166;2022-11-03T08:03:40;12.10;59.40
14101;DHT22;7127;49.372;8.166;2022-11-03T08:06:07;12.20;59.40
14101;DHT22;7127;49.372;8.166;2022-11-03T08:08:36;12.20;59.30
14101;DHT22;7127;49.372;8.166;2022-11-03T08:11:03;12.30;59.40
14101;DHT22;7127;49.372;8.166;2022-11-03T08:13:30;12.40;59.40
14101;DHT22;7127;49.372;8.166;2022-11-03T08:15:57;12.40;59.40
14101;DHT22;7127;49.372;8.166;2022-11-03T08:18:24;12.50;59.40
14101;DHT22;7127;49.372;8.166;2022-11-03T08:20:51;12.50;59.40
14101;DHT22;7127;49.372;8.166;2022-11-03T08:23:18;12.60;59.60
14101;DHT22;7127;49.372;8.166;2022-11-03T08:25:46;12.60;59.40
14101;DHT22;7127;49.372;8.166;2022-11-03T08:28:14;12.70;59.50
14101;DHT22;7127;49.372;8.166;2022-11-03T08:30:41;12.70;59.40
14101;DHT22;7127;49.372;8.166;2022-11-03T08:33:08;12.70;59.30
14101;DHT22;7127;49.372;8.166;2022-11-03T08:35:35;12.80;59.50
14101;DHT22;7127;49.372;8.166;2022-11-03T08:38:02;12.80;59.40
14101;DHT22;7127;49.372;8.166;2022-11-03T08:40:29;12.90;59.50
14101;DHT22;7127;49.372;8.166;2022-11-03T08:42:57;12.90;59.60
14101;DHT22;7127;49.372;8.166;2022-11-03T08:45:27;13.00;59.50
14101;DHT22;7127;49.372;8.166;2022-11-03T08:47:54;13.00;59.50
14101;DHT22;7127;49.372;8.166;2022-11-03T08:50:21;13.10;59.60
14101;DHT22;7127;49.372;8.166;2022-11-03T08:52:49;13.20;59.60
14101;DHT22;7127;49.372;8.166;2022-11-03T08:55:16;13.20;59.50
14101;DHT22;7127;49.372;8.166;2022-11-03T08:57:43;13.30;59.50
14101;DHT22;7127;49.372;8.166;2022-11-03T09:00:13;13.40;59.60
14101;DHT22;7127;49.372;8.166;2022-11-03T09:02:41;13.40;59.60
14101;DHT22;7127;49.372;8.166;2022-11-03T09:05:09;13.50;59.60
14101;DHT22;7127;49.372;8.166;2022-11-03T09:07:37;13.50;59.60
14101;DHT22;7127;49.372;8.166;2022-11-03T09:10:05;13.60;59.50
14101;DHT22;7127;49.372;8.166;2022-11-03T09:12:32;13.70;59.60
14101;DHT22;7127;49.372;8.166;2022-11-03T09:14:59;13.70;59.60
14101;DHT22;7127;49.372;8.166;2022-11-03T09:17:27;13.80;59.60
14101;DHT22;7127;49.372;8.166;2022-11-03T09:19:54;13.90;59.70
14101;DHT22;7127;49.372;8.166;2022-11-03T09:22:21;13.90;59.60
14101;DHT22;7127;49.372;8.166;2022-11-03T09:24:48;14.00;59.60
14101;DHT22;7127;49.372;8.166;2022-11-03T09:27:15;14.00;59.40
14101;DHT22;7127;49.372;8.166;2022-11-03T09:29:42;14.10;59.40
14101;DHT22;7127;49.372;8.166;2022-11-03T09:32:09;14.20;59.40
14101;DHT22;7127;49.372;8.166;2022-11-03T09:34:38;14.20;59.30
14101;DHT22;7127;49.372;8.166;2022-11-03T09:37:05;14.20;59.30
14101;DHT22;7127;49.372;8.166;2022-11-03T09:39:32;14.30;59.30
14101;DHT22;7127;49.372;8.166;2022-11-03T09:42:00;14.30;59.30
14101;DHT22;7127;49.372;8.166;2022-11-03T09:44:31;14.40;59.30
14101;DHT22;7127;49.372;8.166;2022-11-03T09:46:59;14.40;59.80
14101;DHT22;7127;49.372;8.166;2022-11-03T09:49:28;14.50;59.30
14101;DHT22;7127;49.372;8.166;2022-11-03T09:51:58;14.50;59.30
14101;DHT22;7127;49.372;8.166;2022-11-03T09:54:26;14.60;59.30
14101;DHT22;7127;49.372;8.166;2022-11-03T09:56:55;14.60;59.30
14101;DHT22;7127;49.372;8.166;2022-11-03T09:59:23;14.60;59.20
14101;DHT22;7127;49.372;8.166;2022-11-03T10:01:51;14.70;59.30
14101;DHT22;7127;49.372;8.166;2022-11-03T10:04:22;14.70;59.30
14101;DHT22;7127;49.372;8.166;2022-11-03T10:06:50;14.80;59.30
14101;DHT22;7127;49.372;8.166;2022-11-03T10:09:19;14.80;59.20
14101;DHT22;7127;49.372;8.166;2022-11-03T10:11:49;14.90;59.30
14101;DHT22;7127;49.372;8.166;2022-11-03T10:14:18;14.90;59.30
14101;DHT22;7127;49.372;8.166;2022-11-03T10:16:55;15.00;59.30
14101;DHT22;7127;49.372;8.166;2022-11-03T10:19:24;15.10;59.20
14101;DHT22;7127;49.372;8.166;2022-11-03T10:21:52;15.10;59.30
14101;DHT22;7127;49.372;8.166;2022-11-03T10:24:20;15.20;59.30
14101;DHT22;7127;49.372;8.166;2022-11-03T10:26:48;15.30;59.20
14101;DHT22;7127;49.372;8.166;2022-11-03T10:29:17;15.30;59.10
14101;DHT22;7127;49.372;8.166;2022-11-03T10:31:48;15.40;59.20
14101;DHT22;7127;49.372;8.166;2022-11-03T10:34:31;15.50;59.10
14101;DHT22;7127;49.372;8.166;2022-11-03T10:37:14;15.50;59.00
14101;DHT22;7127;49.372;8.166;2022-11-03T10:39:47;15.60;59.00
14101;DHT22;7127;49.372;8.166;2022-11-03T10:42:19;15.60;59.00
14101;DHT22;7127;49.372;8.166;2022-11-03T10:44:46;15.80;59.10
14101;DHT22;7127;49.372;8.166;2022-11-03T10:47:25;15.70;58.90
14101;DHT22;7127;49.372;8.166;2022-11-03T10:49:57;15.80;58.80
14101;DHT22;7127;49.372;8.166;2022-11-03T10:52:26;15.80;58.80
14101;DHT22;7127;49.372;8.166;2022-11-03T10:54:57;15.80;58.70
14101;DHT22;7127;49.372;8.166;2022-11-03T10:57:25;15.80;58.80
14101;DHT22;7127;49.372;8.166;2022-11-03T10:59:53;15.90;58.80
14101;DHT22;7127;49.372;8.166;2022-11-03T11:02:22;15.90;58.70
14101;DHT22;7127;49.372;8.166;2022-11-03T11:04:55;16.00;58.80
14101;DHT22;7127;49.372;8.166;2022-11-03T11:07:32;15.90;58.60
14101;DHT22;7127;49.372;8.166;2022-11-03T11:10:10;16.00;58.60
14101;DHT22;7127;49.372;8.166;2022-11-03T11:12:37;16.00;58.50
14101;DHT22;7127;49.372;8.166;2022-11-03T11:15:36;16.00;59.10
14101;DHT22;7127;49.372;8.166;2022-11-03T11:18:03;16.10;58.60
14101;DHT22;7127;49.372;8.166;2022-11-03T11:20:40;16.10;58.50
14101;DHT22;7127;49.372;8.166;2022-11-03T11:26:31;16.20;58.50
14101;DHT22;7127;49.372;8.166;2022-11-03T11:39:07;16.30;58.40
14101;DHT22;7127;49.372;8.166;2022-11-03T11:42:04;16.20;58.30
14101;DHT22;7127;49.372;8.166;2022-11-03T11:44:51;16.30;58.40
14101;DHT22;7127;49.372;8.166;2022-11-03T11:50:21;16.20;58.20
14101;DHT22;7127;49.372;8.166;2022-11-03T11:52:52;16.30;58.30
14101;DHT22;7127;49.372;8.166;2022-11-03T11:55:29;16.20;58.20
14101;DHT22;7127;49.372;8.166;2022-11-03T11:58:00;16.20;58.20
14101;DHT22;7127;49.372;8.166;2022-11-03T12:00:30;16.20;58.20
14101;DHT22;7127;49.372;8.166;2022-11-03T12:02:58;16.20;58.20
14101;DHT22;7127;49.372;8.166;2022-11-03T12:05:29;16.20;58.30
14101;DHT22;7127;49.372;8.166;2022-11-03T12:07:56;16.20;58.40
14101;DHT22;7127;49.372;8.166;2022-11-03T12:10:25;16.30;58.60
14101;DHT22;7127;49.372;8.166;2022-11-03T12:12:53;16.30;58.60
14101;DHT22;7127;49.372;8.166;2022-11-03T12:15:51;16.30;58.50
14101;DHT22;7127;49.372;8.166;2022-11-03T12:18:33;16.40;58.40
14101;DHT22;7127;49.372;8.166;2022-11-03T12:21:00;16.40;58.40
14101;DHT22;7127;49.372;8.166;2022-11-03T12:23:39;16.40;58.50
14101;DHT22;7127;49.372;8.166;2022-11-03T12:26:14;16.40;59.00
14101;DHT22;7127;49.372;8.166;2022-11-03T12:28:41;16.40;58.40
14101;DHT22;7127;49.372;8.166;2022-11-03T12:31:10;16.40;58.40
14101;DHT22;7127;49.372;8.166;2022-11-03T12:33:38;16.50;58.40
14101;DHT22;7127;49.372;8.166;2022-11-03T12:36:05;16.50;58.40
14101;DHT22;7127;49.372;8.166;2022-11-03T12:38:32;16.50;58.40
14101;DHT22;7127;49.372;8.166;2022-11-03T12:40:59;16.60;58.40
14101;DHT22;7127;49.372;8.166;2022-11-03T12:43:46;16.60;58.30
14101;DHT22;7127;49.372;8.166;2022-11-03T12:46:15;16.60;58.30
14101;DHT22;7127;49.372;8.166;2022-11-03T12:48:43;16.60;58.20
14101;DHT22;7127;49.372;8.166;2022-11-03T12:51:13;16.70;58.30
14101;DHT22;7127;49.372;8.166;2022-11-03T12:53:41;16.70;58.30
14101;DHT22;7127;49.372;8.166;2022-11-03T12:56:08;16.70;58.30
14101;DHT22;7127;49.372;8.166;2022-11-03T12:58:36;16.70;58.20
14101;DHT22;7127;49.372;8.166;2022-11-03T13:01:03;16.70;58.20
14101;DHT22;7127;49.372;8.166;2022-11-03T13:03:32;16.70;58.20
14101;DHT22;7127;49.372;8.166;2022-11-03T13:06:00;16.70;58.20
14101;DHT22;7127;49.372;8.166;2022-11-03T13:08:29;16.70;58.20
14101;DHT22;7127;49.372;8.166;2022-11-03T13:10:55;16.70;58.10
14101;DHT22;7127;49.372;8.166;2022-11-03T13:13:23;16.70;58.10
14101;DHT22;7127;49.372;8.166;2022-11-03T13:15:50;16.70;58.00
14101;DHT22;7127;49.372;8.166;2022-11-03T13:18:17;16.70;58.00
14101;DHT22;7127;49.372;8.166;2022-11-03T13:20:46;16.70;58.00
14101;DHT22;7127;49.372;8.166;2022-11-03T13:23:13;16.80;58.00
14101;DHT22;7127;49.372;8.166;2022-11-03T13:25:40;16.70;57.90
14101;DHT22;7127;49.372;8.166;2022-11-03T13:28:07;16.70;57.90
14101;DHT22;7127;49.372;8.166;2022-11-03T13:30:34;16.70;57.80
14101;DHT22;7127;49.372;8.166;2022-11-03T13:33:01;16.70;57.80
14101;DHT22;7127;49.372;8.166;2022-11-03T13:35:28;16.70;57.80
14101;DHT22;7127;49.372;8.166;2022-11-03T13:37:56;16.60;57.70
14101;DHT22;7127;49.372;8.166;2022-11-03T13:40:23;16.60;57.70
14101;DHT22;7127;49.372;8.166;2022-11-03T13:42:50;16.60;57.80
14101;DHT22;7127;49.372;8.166;2022-11-03T13:45:17;16.60;57.80
14101;DHT22;7127;49.372;8.166;2022-11-03T13:47:44;16.60;57.80
14101;DHT22;7127;49.372;8.166;2022-11-03T13:50:11;16.60;57.80
14101;DHT22;7127;49.372;8.166;2022-11-03T13:52:38;16.60;57.80
14101;DHT22;7127;49.372;8.166;2022-11-03T13:55:08;16.50;57.80
14101;DHT22;7127;49.372;8.166;2022-11-03T13:57:35;16.60;57.80
14101;DHT22;7127;49.372;8.166;2022-11-03T14:00:02;16.50;57.80
14101;DHT22;7127;49.372;8.166;2022-11-03T14:02:30;16.50;57.80
14101;DHT22;7127;49.372;8.166;2022-11-03T14:04:57;16.50;57.80
14101;DHT22;7127;49.372;8.166;2022-11-03T14:07:24;16.50;57.80
14101;DHT22;7127;49.372;8.166;2022-11-03T14:09:51;16.50;57.60
14101;DHT22;7127;49.372;8.166;2022-11-03T14:12:20;16.50;57.60
14101;DHT22;7127;49.372;8.166;2022-11-03T14:15:00;16.50;57.60
14101;DHT22;7127;49.372;8.166;2022-11-03T14:17:28;16.50;57.70
14101;DHT22;7127;49.372;8.166;2022-11-03T14:19:55;16.40;57.70
14101;DHT22;7127;49.372;8.166;2022-11-03T14:22:22;16.40;57.80
14101;DHT22;7127;49.372;8.166;2022-11-03T14:24:50;16.40;57.80
14101;DHT22;7127;49.372;8.166;2022-11-03T14:27:19;16.40;57.90
14101;DHT22;7127;49.372;8.166;2022-11-03T14:29:46;16.40;57.90
14101;DHT22;7127;49.372;8.166;2022-11-03T14:32:16;16.40;57.90
14101;DHT22;7127;49.372;8.166;2022-11-03T14:34:47;16.40;57.80
14101;DHT22;7127;49.372;8.166;2022-11-03T14:37:14;16.40;57.90
14101;DHT22;7127;49.372;8.166;2022-11-03T14:39:41;16.40;57.90
14101;DHT22;7127;49.372;8.166;2022-11-03T14:42:10;16.30;57.90
14101;DHT22;7127;49.372;8.166;2022-11-03T14:44:41;16.40;58.00
14101;DHT22;7127;49.372;8.166;2022-11-03T14:47:10;16.30;57.90
14101;DHT22;7127;49.372;8.166;2022-11-03T14:49:37;16.30;57.90
14101;DHT22;7127;49.372;8.166;2022-11-03T14:52:05;16.30;58.40
14101;DHT22;7127;49.372;8.166;2022-11-03T14:54:33;16.30;57.90
14101;DHT22;7127;49.372;8.166;2022-11-03T14:57:00;16.30;57.90
14101;DHT22;7127;49.372;8.166;2022-11-03T14:59:27;16.30;57.90
14101;DHT22;7127;49.372;8.166;2022-11-03T15:01:57;16.30;57.90
14101;DHT22;7127;49.372;8.166;2022-11-03T15:04:24;16.30;57.90
14101;DHT22;7127;49.372;8.166;2022-11-03T15:06:51;16.30;57.90
14101;DHT22;7127;49.372;8.166;2022-11-03T15:09:19;16.20;57.80
14101;DHT22;7127;49.372;8.166;2022-11-03T15:11:46;16.20;57.80
14101;DHT22;7127;49.372;8.166;2022-11-03T15:14:13;16.20;57.90
14101;DHT22;7127;49.372;8.166;2022-11-03T15:16:40;16.20;57.80
14101;DHT22;7127;49.372;8.166;2022-11-03T15:19:09;16.20;57.90
14101;DHT22;7127;49.372;8.166;2022-11-03T15:21:36;16.20;57.90
14101;DHT22;7127;49.372;8.166;2022-11-03T15:24:04;16.20;57.90
14101;DHT22;7127;49.372;8.166;2022-11-03T15:26:31;16.20;57.90
14101;DHT22;7127;49.372;8.166;2022-11-03T15:28:58;16.20;57.80
14101;DHT22;7127;49.372;8.166;2022-11-03T15:31:24;16.20;57.80
14101;DHT22;7127;49.372;8.166;2022-11-03T15:33:51;16.20;57.80
14101;DHT22;7127;49.372;8.166;2022-11-03T15:36:20;16.20;57.70
14101;DHT22;7127;49.372;8.166;2022-11-03T15:38:48;16.20;57.70
14101;DHT22;7127;49.372;8.166;2022-11-03T15:41:15;16.20;57.70
14101;DHT22;7127;49.372;8.166;2022-11-03T15:43:44;16.20;57.60
14101;DHT22;7127;49.372;8.166;2022-11-03T15:46:12;16.20;57.50
14101;DHT22;7127;49.372;8.166;2022-11-03T15:48:39;16.20;57.50
14101;DHT22;7127;49.372;8.166;2022-11-03T15:51:06;16.20;57.60
14101;DHT22;7127;49.372;8.166;2022-11-03T15:53:35;16.20;57.60
14101;DHT22;7127;49.372;8.166;2022-11-03T15:56:02;16.20;57.50
14101;DHT22;7127;49.372;8.166;2022-11-03T15:58:29;16.20;57.50
14101;DHT22;7127;49.372;8.166;2022-11-03T16:00:59;16.10;57.50
14101;DHT22;7127;49.372;8.166;2022-11-03T16:03:26;16.20;57.50
14101;DHT22;7127;49.372;8.166;2022-11-03T16:05:53;16.10;57.40
14101;DHT22;7127;49.372;8.166;2022-11-03T16:08:20;16.10;57.40
14101;DHT22;7127;49.372;8.166;2022-11-03T16:10:56;16.10;57.40
14101;DHT22;7127;49.372;8.166;2022-11-03T16:13:38;16.10;57.40
14101;DHT22;7127;49.372;8.166;2022-11-03T16:16:22;16.20;57.50
14101;DHT22;7127;49.372;8.166;2022-11-03T16:18:50;16.10;57.60